Portada
METAR-TAF:

METAR-TAF

Aeroports :

Dakar, Senegal

latitud: 14-40-16N, longitud: 17-04-01W, altitud: 88 m

Observació

L'informe es va fer fa 19 minuts, a les 05:00 UTC
Vent 11 kt del Nord
Temperatura 21°C
Humitat 78%
Pressió 1011 hPa
Visibilitat: 8000 m

METAR: GOBD 290500Z 36011KT 8000 NSC 21/17 Q1011 NOSIG

Hora: 05:19 (05:19 UTC)

Pronòstic

L'informe es va fer fa 5 hores i 49 minuts, a les 23:30 UTC
Pronòstic vàlid del 29 a les 00 UTC al 30 a les 06 UTC
Vent 8 kt del Nord
Visibilitat: 8000 m

TAF: GOBD 282330Z 2900/3006 36008KT 8000 NSC

Observacions i pronòstics meteorològics de més de 4000 aeroports (METAR i TAF).

Les estacions disponibles són els punts grocs i vermells al mapa.

Posi el ratolí al punt desitjat per veure el nom de l'estació.

Feu clic per veure les observacions i els pronòstics meteorològics.

Per canviar el mapa: feu clic els botons verds amb una creu de color negre per apropar; al botó verd amb un guió per allunyar la imatge; o en les fletxes verdes per a mapes adjacents.


METAR-TAF: